Prince Rupert,

6:39 AM PDT on April 29, 2017 (GMT -0700)
Prince Rupert | | Change Station

Elev 115 ft 54.29 °N, 130.44 °W | Updated 39 minutes ago

Overcast
Overcast
41 °F
Feels Like 39 °F
N
4
Wind Variable Wind from East

Today
High -- | Low -- °F
--% Chance of Precip.
Yesterday
High -- | Low -- °F
Precip. -- in
Pressure 30.00 in
Visibility 9.0 miles
Clouds Overcast 15000 ft
Windchill 39 °F
Dew Point 37 °F
Humidity 87%
Rainfall 0.00 in
Snow Depth Not available.
6:07 AM 9:11 PM
Waxing Crescent, 13% visible
METAR CYPR 291300Z AUTO 10003KT 9SM OVC150 05/03 A2999 RMK SLP157
Pressure 30.00 in
Visibility 9.0 miles
Clouds Overcast 15000 ft
Windchill 39 °F
Dew Point 37 °F
Humidity 87%
Rainfall 0.00 in
Snow Depth Not available.
6:07 AM 9:11 PM
Waxing Crescent, 13% visible
METAR CYPR 291300Z AUTO 10003KT 9SM OVC150 05/03 A2999 RMK SLP157

Get Severe Weather Alerts

Thanks for signing up!

Be on the lookout for a verification email in your inbox.

You'll start receiving the daily forecast at 8 AM.

×

10-Day Weather Forecast

No radar image for this location.
×

Almanac

Astronomy

Apr. 29, 2017 Rise Set
Actual Time
Civil Twilight
Nautical Twilight
Astronomical Twilight
Moon
Length of Visible Light
Length of Day
Tomorrow will be .
, % of the Moon is Illuminated

Today's Extremes

Country Highs Country Lows

Community

WunderPhotos

WunderBlog® & News

Nearby

Air Quality

  Air Quality AQ Index Pollutant
Not available.

Snow Depth

Station Depth Elevation

Earthquake Activity

City Distance Mag. Time & Date
Minimum magnitude displayed is 2.5.

Coastal Water Temperatures

Place Temperature

Stations

Nearby Weather Stations

Station Location Temp. Windchill Dew Point Humidity Wind Precip. Elev Updated Type
                   

Watches & Warnings

There are currently no watches in effect.